createdAt,value
2023-04-14T00:02:08.615Z,38131.88
2023-04-14T00:04:35.790Z,38123.91
2023-04-14T00:07:02.374Z,38171.75
2023-04-14T00:09:28.752Z,38193.69
2023-04-14T00:11:56.632Z,38203.66
2023-04-14T00:14:23.280Z,38243.53
2023-04-14T00:16:49.703Z,38261.50
2023-04-14T00:19:16.115Z,38303.38
2023-04-14T00:21:42.639Z,38319.31
2023-04-14T00:24:09.080Z,38363.19
2023-04-14T00:26:35.658Z,38395.09
2023-04-14T00:29:02.306Z,38425.03
2023-04-14T00:31:29.268Z,38450.94
2023-04-14T00:33:55.983Z,38504.78
2023-04-14T00:36:22.872Z,38494.81
2023-04-14T00:38:49.286Z,38526.72
2023-04-14T00:41:15.688Z,38582.56
2023-04-14T00:43:42.222Z,38594.53
2023-04-14T00:46:08.696Z,38624.44
2023-04-14T00:48:35.921Z,38688.28
2023-04-14T00:51:04.169Z,38714.19
2023-04-14T00:53:32.536Z,38742.13
2023-04-14T00:55:59.231Z,38772.03
2023-04-14T00:58:26.207Z,38805.94
2023-04-14T01:00:55.695Z,38865.78
2023-04-14T01:03:24.470Z,38891.72
2023-04-14T01:05:51.264Z,38929.59
2023-04-14T01:08:19.365Z,38969.50
2023-04-14T01:10:54.888Z,39013.38
2023-04-14T01:13:46.421Z,39093.16
2023-04-14T01:16:32.387Z,39137.06
2023-04-14T01:19:10.383Z,39174.94
2023-04-14T01:21:42.367Z,39250.75
2023-04-14T01:24:31.055Z,39278.69
2023-04-14T01:27:16.346Z,39310.59
2023-04-14T01:29:55.861Z,39334.53
2023-04-14T01:32:25.604Z,39372.44
2023-04-14T01:34:56.603Z,39464.19
2023-04-14T01:37:30.592Z,39472.19
2023-04-14T01:40:03.483Z,39488.13
2023-04-14T01:42:36.060Z,39544.00
2023-04-14T01:45:22.891Z,39563.94
2023-04-14T01:47:51.835Z,39587.88
2023-04-14T01:50:21.121Z,39607.84
2023-04-14T01:52:53.934Z,39645.72
2023-04-14T01:55:23.398Z,39687.63
2023-04-14T01:57:52.608Z,39719.56
2023-04-14T02:00:20.687Z,39707.56
2023-04-14T02:02:50.649Z,39759.44
2023-04-14T02:05:18.955Z,39779.41
2023-04-14T02:07:47.864Z,39807.34
2023-04-14T02:10:19.077Z,39835.25
2023-04-14T02:12:46.754Z,39895.13
2023-04-14T02:15:15.988Z,39885.16
2023-04-14T02:17:44.282Z,39923.06
2023-04-14T02:20:14.617Z,39947.00
2023-04-14T02:22:41.763Z,39974.94
2023-04-14T02:25:08.810Z,39990.88
2023-04-14T02:27:41.312Z,40078.69
2023-04-14T02:30:19.205Z,40074.69
2023-04-14T02:32:51.254Z,40126.56
2023-04-14T02:35:26.735Z,40178.44
2023-04-14T02:38:05.303Z,40200.38
2023-04-14T02:40:36.199Z,40228.31
2023-04-14T02:43:13.723Z,40250.28
2023-04-14T02:45:46.863Z,40290.19
2023-04-14T02:48:16.358Z,40326.09
2023-04-14T02:50:47.638Z,40413.91
2023-04-14T02:53:21.508Z,40453.81
2023-04-14T02:55:51.794Z,40507.69
2023-04-14T02:58:19.912Z,40607.47
2023-04-14T03:00:47.610Z,40677.31
2023-04-14T03:03:15.817Z,40749.16
2023-04-14T03:05:43.881Z,40848.94
2023-04-14T03:08:15.905Z,40914.78
2023-04-14T03:10:48.184Z,40950.72
2023-04-14T03:13:18.633Z,40972.66
2023-04-14T03:15:46.050Z,41016.56
2023-04-14T03:18:14.428Z,41002.59
2023-04-14T03:20:43.325Z,41028.56
2023-04-14T03:23:12.397Z,41052.50
2023-04-14T03:25:46.538Z,41092.41
2023-04-14T03:28:22.916Z,41052.50
2023-04-14T03:30:53.990Z,41120.34
2023-04-14T03:33:24.928Z,41104.38
2023-04-14T03:35:53.632Z,41104.38
2023-04-14T03:38:21.586Z,41128.34
2023-04-14T03:40:50.299Z,41120.34
2023-04-14T03:43:22.618Z,41152.28
2023-04-14T03:45:56.793Z,41138.31
2023-04-14T03:48:26.343Z,41188.22
2023-04-14T03:50:54.914Z,41176.25
2023-04-14T03:53:21.889Z,41192.22
2023-04-14T03:55:51.353Z,41252.09
2023-04-14T03:58:18.849Z,41236.13
2023-04-14T04:00:48.247Z,41248.09
2023-04-14T04:03:16.060Z,41252.09
2023-04-14T04:05:43.890Z,41260.06
2023-04-14T04:08:12.567Z,41286.03
2023-04-14T04:10:39.596Z,41311.97
2023-04-14T04:13:12.753Z,41327.94
2023-04-14T04:15:41.278Z,41345.91
2023-04-14T04:18:12.211Z,41337.91
2023-04-14T04:20:41.242Z,41373.84
2023-04-14T04:23:09.619Z,41383.81
2023-04-14T04:25:38.325Z,41387.81
2023-04-14T04:28:12.689Z,41387.81
2023-04-14T04:30:42.909Z,41415.75
2023-04-14T04:33:10.878Z,41447.69
2023-04-14T04:35:39.300Z,41421.75
2023-04-14T04:38:11.182Z,41435.72
2023-04-14T04:40:39.710Z,41435.72
2023-04-14T04:43:12.834Z,41473.66
2023-04-14T04:45:57.581Z,41497.59
2023-04-14T04:48:25.594Z,41511.56
2023-04-14T04:50:52.006Z,41531.53
2023-04-14T04:53:18.442Z,41533.53
2023-04-14T04:55:44.968Z,41555.50
2023-04-14T04:58:11.758Z,41583.44
2023-04-14T05:00:38.648Z,41591.41
2023-04-14T05:03:05.202Z,41611.38
2023-04-14T05:05:36.399Z,41639.31
2023-04-14T05:08:03.052Z,41703.19
2023-04-14T05:10:29.617Z,41723.16
2023-04-14T05:12:56.059Z,41717.19
2023-04-14T05:15:22.454Z,41731.16
2023-04-14T05:17:48.889Z,41767.09
2023-04-14T05:20:15.458Z,41785.06
2023-04-14T05:22:41.843Z,41840.94
2023-04-14T05:25:08.756Z,41842.94
2023-04-14T05:27:35.350Z,41878.88
2023-04-14T05:30:02.029Z,41866.91
2023-04-14T05:32:29.096Z,41906.81
2023-04-14T05:34:56.063Z,41922.78
2023-04-14T05:37:22.700Z,41962.72
2023-04-14T05:39:49.073Z,42030.59
2023-04-14T05:42:15.481Z,42068.53
2023-04-14T05:44:41.924Z,42102.47
2023-04-14T05:47:08.455Z,42096.47
2023-04-14T05:49:34.897Z,42162.38
2023-04-14T05:52:01.629Z,42142.41
2023-04-14T05:54:28.188Z,42174.34
2023-04-14T05:56:54.564Z,42178.34
2023-04-14T05:59:21.169Z,42212.28
2023-04-14T06:01:47.655Z,42198.31
2023-04-14T06:04:15.329Z,42206.28
2023-04-14T06:06:42.616Z,42230.25
2023-04-14T06:09:09.450Z,42230.25
2023-04-14T06:11:35.912Z,42234.25
2023-04-14T06:14:02.887Z,42254.19
2023-04-14T06:16:29.587Z,42262.19
2023-04-14T06:18:57.164Z,42226.25
2023-04-14T06:21:23.693Z,42218.25
2023-04-14T06:23:50.193Z,42234.25
2023-04-14T06:26:16.642Z,42254.19
2023-04-14T06:28:44.144Z,42214.28
2023-04-14T06:31:10.839Z,42182.31
2023-04-14T06:33:37.240Z,42138.41
2023-04-14T06:36:03.860Z,42114.44
2023-04-14T06:38:30.321Z,42054.56
2023-04-14T06:40:57.289Z,42022.63
2023-04-14T06:43:23.719Z,41966.72
2023-04-14T06:45:50.789Z,41900.84
2023-04-14T06:48:17.425Z,41886.84
2023-04-14T06:50:44.528Z,41858.91
2023-04-14T06:53:11.177Z,41838.94
2023-04-14T06:55:41.040Z,41777.06
2023-04-14T06:58:07.471Z,41767.09
2023-04-14T07:00:33.864Z,41801.03
2023-04-14T07:03:00.445Z,41773.06
2023-04-14T07:05:27.102Z,41759.09
2023-04-14T07:07:53.535Z,41739.13
2023-04-14T07:10:19.945Z,41733.16
2023-04-14T07:12:46.335Z,41707.19
2023-04-14T07:15:14.217Z,41699.22
2023-04-14T07:17:40.835Z,41671.25
2023-04-14T07:20:07.850Z,41649.31
2023-04-14T07:22:34.367Z,41651.31
2023-04-14T07:25:00.839Z,41667.28
2023-04-14T07:27:28.603Z,41655.28
2023-04-14T07:29:55.059Z,41611.38
2023-04-14T07:32:21.799Z,41611.38
2023-04-14T07:34:48.401Z,41621.34
2023-04-14T07:37:16.330Z,41581.44
2023-04-14T07:39:43.114Z,41591.41
2023-04-14T07:42:09.489Z,41579.44
2023-04-14T07:44:35.916Z,41579.44
2023-04-14T07:47:02.324Z,41543.50
2023-04-14T07:49:31.496Z,41543.50
2023-04-14T07:51:57.899Z,41479.63
2023-04-14T07:54:24.411Z,41511.56
2023-04-14T07:56:51.004Z,41491.63
2023-04-14T07:59:17.484Z,41491.63
2023-04-14T08:01:44.109Z,41471.66
2023-04-14T08:04:10.959Z,41481.63
2023-04-14T08:06:37.536Z,41497.59
2023-04-14T08:09:04.020Z,41465.66
2023-04-14T08:11:30.502Z,41433.72
2023-04-14T08:13:59.693Z,41411.78
2023-04-14T08:16:26.944Z,41373.84
2023-04-14T08:18:55.082Z,41335.91
2023-04-14T08:21:22.888Z,41359.88
2023-04-14T08:23:49.327Z,41339.91
2023-04-14T08:26:15.702Z,41347.91
2023-04-14T08:28:42.088Z,41274.03
2023-04-14T08:31:08.726Z,41278.03
2023-04-14T08:33:35.222Z,41268.06
2023-04-14T08:36:01.670Z,41240.13
2023-04-14T08:38:29.090Z,41224.16
2023-04-14T08:40:56.811Z,41176.25
2023-04-14T08:43:23.435Z,41196.19
2023-04-14T08:45:52.951Z,41150.28
2023-04-14T08:48:20.052Z,41140.31
2023-04-14T08:50:59.187Z,41080.44
2023-04-14T08:53:27.517Z,41102.41
2023-04-14T08:55:56.824Z,41010.59
2023-04-14T08:58:24.590Z,41026.56
2023-04-14T09:00:53.303Z,40976.66
2023-04-14T09:03:21.069Z,41024.56
2023-04-14T09:05:48.330Z,41032.53
2023-04-14T09:08:15.615Z,40992.63
2023-04-14T09:10:43.002Z,40980.66
2023-04-14T09:13:12.511Z,40908.81
2023-04-14T09:15:39.014Z,40968.69
2023-04-14T09:18:05.644Z,40960.69
2023-04-14T09:20:38.557Z,40900.81
2023-04-14T09:23:08.545Z,40918.78
2023-04-14T09:25:35.042Z,40916.78
2023-04-14T09:28:01.597Z,40932.75
2023-04-14T09:30:28.698Z,40920.78
2023-04-14T09:32:56.368Z,40960.69
2023-04-14T09:35:23.003Z,40894.84
2023-04-14T09:37:49.540Z,40874.88
2023-04-14T09:40:31.566Z,40815.00
2023-04-14T09:42:58.389Z,40809.00
2023-04-14T09:45:44.604Z,40785.06
2023-04-14T09:48:15.225Z,40771.09
2023-04-14T09:51:03.605Z,40781.06
2023-04-14T09:53:32.151Z,40781.06
2023-04-14T09:56:02.718Z,40824.97
2023-04-14T09:58:33.834Z,40745.16
2023-04-14T10:01:02.522Z,40773.09
2023-04-14T10:03:34.658Z,40693.28
2023-04-14T10:06:04.538Z,40633.41
2023-04-14T10:08:38.919Z,40657.34
2023-04-14T10:11:15.434Z,40667.31
2023-04-14T10:13:42.759Z,40705.25
2023-04-14T10:16:09.212Z,40691.28
2023-04-14T10:18:36.153Z,40679.31
2023-04-14T10:21:03.883Z,40657.34
2023-04-14T10:23:31.704Z,40625.41
2023-04-14T10:25:58.392Z,40593.50
2023-04-14T10:28:26.934Z,40531.63
2023-04-14T10:30:56.193Z,40535.63
2023-04-14T10:33:23.794Z,40553.56
2023-04-14T10:35:55.068Z,40521.66
2023-04-14T10:38:21.464Z,40429.84
2023-04-14T10:40:53.822Z,40495.72
2023-04-14T10:43:20.889Z,40346.06
2023-04-14T10:45:57.478Z,40370.00
2023-04-14T10:48:32.345Z,40354.03
2023-04-14T10:50:59.392Z,40320.09
2023-04-14T10:53:29.630Z,40306.13
2023-04-14T10:55:57.169Z,40282.19
2023-04-14T10:58:29.126Z,40248.28
2023-04-14T11:00:58.619Z,40274.22
2023-04-14T11:03:31.450Z,40236.31
2023-04-14T11:05:58.136Z,40068.69
2023-04-14T11:08:25.527Z,39913.06
2023-04-14T11:11:04.061Z,39875.16
2023-04-14T11:13:32.153Z,39869.19
2023-04-14T11:16:08.749Z,39675.66
2023-04-14T11:18:44.925Z,39663.69
2023-04-14T11:21:14.338Z,39587.88
2023-04-14T11:23:41.414Z,39577.91
2023-04-14T11:26:10.473Z,39635.75
2023-04-14T11:28:46.658Z,39520.06
2023-04-14T11:31:16.695Z,39448.25
2023-04-14T11:33:44.634Z,39524.03
2023-04-14T11:36:12.757Z,39526.03
2023-04-14T11:38:40.405Z,39440.25
2023-04-14T11:41:07.783Z,39386.41
2023-04-14T11:43:34.463Z,39290.66
2023-04-14T11:46:04.931Z,39232.78
2023-04-14T11:48:31.602Z,38875.75
2023-04-14T11:51:03.166Z,38831.88
2023-04-14T11:53:29.738Z,38588.56
2023-04-14T11:55:57.466Z,38496.81
2023-04-14T11:58:26.451Z,38419.03
2023-04-14T12:00:56.046Z,38261.50
2023-04-14T12:03:27.602Z,38143.84
2023-04-14T12:06:02.002Z,38111.94
2023-04-14T12:08:32.861Z,37980.31
2023-04-14T12:11:13.208Z,38000.28
2023-04-14T12:13:41.611Z,37892.59
2023-04-14T12:16:08.376Z,37788.91
2023-04-14T12:18:35.216Z,37685.22
2023-04-14T12:21:07.303Z,37689.22
2023-04-14T12:23:37.534Z,37669.28
2023-04-14T12:26:09.497Z,37910.53
2023-04-14T12:28:38.870Z,38066.06
2023-04-14T12:31:05.495Z,37768.97
2023-04-14T12:33:32.790Z,37633.38
2023-04-14T12:36:04.637Z,37509.78
2023-04-14T12:38:31.508Z,37545.66
2023-04-14T12:40:57.935Z,37517.75
2023-04-14T12:43:35.531Z,37573.56
2023-04-14T12:46:06.135Z,37459.94
2023-04-14T12:48:44.663Z,37392.16
2023-04-14T12:51:13.249Z,37260.56
2023-04-14T12:53:41.131Z,37073.19
2023-04-14T12:56:10.249Z,37031.31
2023-04-14T12:58:38.557Z,36955.56
2023-04-14T13:01:06.818Z,36935.63
2023-04-14T13:04:00.734Z,36935.63
2023-04-14T13:06:27.396Z,36931.66
2023-04-14T13:08:54.904Z,36939.63
2023-04-14T13:11:25.979Z,36688.47
2023-04-14T13:13:53.363Z,36682.47
2023-04-14T13:16:20.686Z,36688.47
2023-04-14T13:18:48.919Z,36588.81
2023-04-14T13:21:15.943Z,36393.47
2023-04-14T13:23:42.998Z,36299.81
2023-04-14T13:26:09.740Z,36293.81
2023-04-14T13:28:36.756Z,36315.75
2023-04-14T13:31:03.306Z,36325.72
2023-04-14T13:33:29.759Z,36277.88
2023-04-14T13:35:56.396Z,36094.53
2023-04-14T13:38:22.857Z,35937.09
2023-04-14T13:40:49.376Z,35911.19
2023-04-14T13:43:17.947Z,35831.47
2023-04-14T13:45:44.869Z,35797.59
2023-04-14T13:48:11.341Z,35845.44
2023-04-14T13:50:37.914Z,35899.22
2023-04-14T13:53:04.350Z,35871.34
2023-04-14T13:55:31.295Z,35899.22
2023-04-14T13:57:58.220Z,35857.38
2023-04-14T14:00:24.622Z,35717.91
2023-04-14T14:02:52.519Z,35721.88
2023-04-14T14:05:19.084Z,35767.72
2023-04-14T14:07:45.537Z,35807.56
2023-04-14T14:10:12.307Z,35805.56
2023-04-14T14:12:38.734Z,35823.50
2023-04-14T14:15:05.811Z,35735.81
2023-04-14T14:17:32.550Z,35968.97
2023-04-14T14:19:59.153Z,35707.94
2023-04-14T14:22:26.124Z,35662.09
2023-04-14T14:24:58.531Z,35506.69
2023-04-14T14:27:31.563Z,35411.03
2023-04-14T14:29:57.962Z,35351.25
2023-04-14T14:32:24.336Z,35363.22
2023-04-14T14:34:51.028Z,35413.03
2023-04-14T14:37:18.669Z,35456.88
2023-04-14T14:39:45.211Z,35484.75
2023-04-14T14:42:11.851Z,35454.88
2023-04-14T14:44:38.381Z,35309.44
2023-04-14T14:47:06.326Z,35476.78
2023-04-14T14:49:32.823Z,35399.09
2023-04-14T14:52:01.643Z,35464.84
2023-04-14T14:54:28.071Z,35510.66
2023-04-14T14:56:54.438Z,35413.03
2023-04-14T14:59:20.824Z,35440.94
2023-04-14T15:01:48.630Z,35460.84
2023-04-14T15:04:15.207Z,35425.00
2023-04-14T15:06:41.684Z,35393.09
2023-04-14T15:09:08.185Z,35361.22
2023-04-14T15:11:34.637Z,35367.22
2023-04-14T15:14:01.529Z,35413.03
2023-04-14T15:16:28.365Z,35379.16
2023-04-14T15:18:55.420Z,35472.81
2023-04-14T15:21:21.803Z,35440.94
2023-04-14T15:23:48.192Z,35371.19
2023-04-14T15:26:14.569Z,35417.03
2023-04-14T15:28:41.151Z,35456.88
2023-04-14T15:31:09.063Z,35488.75
2023-04-14T15:33:36.025Z,35472.81
2023-04-14T15:36:02.757Z,35552.50
2023-04-14T15:38:29.147Z,35544.53
2023-04-14T15:40:55.840Z,35548.53
2023-04-14T15:43:23.194Z,35544.53
2023-04-14T15:45:49.628Z,35564.47
2023-04-14T15:48:16.102Z,35558.50
2023-04-14T15:50:44.855Z,35524.63
2023-04-14T15:53:11.988Z,35520.63
2023-04-14T15:55:39.707Z,35578.41
2023-04-14T15:58:06.474Z,35576.41
2023-04-14T16:00:33.330Z,35624.25
2023-04-14T16:03:01.897Z,35668.06
2023-04-14T16:05:28.841Z,35632.22
2023-04-14T16:07:55.833Z,35534.56
2023-04-14T16:10:22.412Z,35594.34
2023-04-14T16:12:50.253Z,35600.34
2023-04-14T16:15:17.209Z,35596.34
2023-04-14T16:17:43.784Z,35620.25
2023-04-14T16:20:12.214Z,35596.34
2023-04-14T16:22:38.931Z,35594.34
2023-04-14T16:25:06.810Z,35608.31
2023-04-14T16:27:34.532Z,35588.38
2023-04-14T16:30:01.797Z,35648.16
2023-04-14T16:32:29.609Z,35608.31
2023-04-14T16:34:57.059Z,35648.16
2023-04-14T16:37:25.888Z,35656.13
2023-04-14T16:39:56.382Z,35692.00
2023-04-14T16:42:24.375Z,35695.97
2023-04-14T16:44:54.978Z,35606.31
2023-04-14T16:47:21.920Z,35572.44
2023-04-14T16:49:51.820Z,35576.41
2023-04-14T16:52:19.112Z,35596.34
2023-04-14T16:54:45.512Z,35634.22
2023-04-14T16:57:11.903Z,35664.09
2023-04-14T16:59:39.344Z,35646.16
2023-04-14T17:02:06.426Z,35707.94
2023-04-14T17:04:33.286Z,35695.97
2023-04-14T17:07:00.147Z,35648.16
2023-04-14T17:09:26.759Z,35688.00
2023-04-14T17:11:54.527Z,35711.91
2023-04-14T17:14:23.086Z,35668.06
2023-04-14T17:16:49.876Z,35636.19
2023-04-14T17:19:16.975Z,35705.94
2023-04-14T17:21:45.383Z,35715.91
2023-04-14T17:24:12.601Z,35721.88
2023-04-14T17:26:39.032Z,35703.94
2023-04-14T17:29:05.420Z,35737.81
2023-04-14T17:31:32.390Z,35743.81
2023-04-14T17:34:00.008Z,35693.97
2023-04-14T17:36:27.667Z,35695.97
2023-04-14T17:38:54.149Z,35771.69
2023-04-14T17:41:21.071Z,35719.88
2023-04-14T17:43:48.047Z,35755.75
2023-04-14T17:46:16.550Z,35791.63
2023-04-14T17:48:43.374Z,35807.56
2023-04-14T17:51:10.492Z,35781.66
2023-04-14T17:53:37.443Z,35779.66
2023-04-14T17:56:03.982Z,35771.69
2023-04-14T17:58:30.617Z,35811.56
2023-04-14T18:00:57.319Z,35779.66
2023-04-14T18:03:23.833Z,35763.72
2023-04-14T18:05:50.413Z,35787.63
2023-04-14T18:08:16.847Z,35761.72
2023-04-14T18:10:45.578Z,35811.56
2023-04-14T18:13:12.693Z,35803.59
2023-04-14T18:15:40.818Z,35837.47
2023-04-14T18:18:07.380Z,35819.53
2023-04-14T18:20:33.797Z,35839.44
2023-04-14T18:23:02.128Z,35863.38
2023-04-14T18:26:26.383Z,35835.47
2023-04-14T18:28:17.947Z,35841.44
2023-04-14T18:30:45.404Z,35871.34
2023-04-14T18:33:11.883Z,35863.38
2023-04-14T18:35:38.286Z,35871.34
2023-04-14T18:38:04.812Z,35873.31
2023-04-14T18:40:31.505Z,35871.34
2023-04-14T18:42:57.973Z,35849.41
2023-04-14T18:45:24.358Z,35815.53
2023-04-14T18:47:51.069Z,35831.47
2023-04-14T18:50:20.185Z,35857.38
2023-04-14T18:52:46.593Z,35851.41
2023-04-14T18:55:13.450Z,35855.41
2023-04-14T18:57:39.814Z,35863.38
2023-04-14T19:00:06.947Z,35883.28
2023-04-14T19:02:34.440Z,35859.38
2023-04-14T19:05:01.246Z,35877.31
2023-04-14T19:07:27.741Z,35907.19
2023-04-14T19:09:54.271Z,35937.09
2023-04-14T19:12:28.091Z,36040.72
2023-04-14T19:14:55.593Z,35931.13
2023-04-14T19:17:22.029Z,35951.03
2023-04-14T19:19:48.966Z,35917.16
2023-04-14T19:22:16.088Z,35927.13
2023-04-14T19:24:42.559Z,35939.09
2023-04-14T19:27:10.141Z,35919.16
2023-04-14T19:29:36.681Z,35919.16
2023-04-14T19:32:04.527Z,35951.03
2023-04-14T19:34:31.403Z,35953.03
2023-04-14T19:36:58.147Z,35951.03
2023-04-14T19:39:24.528Z,35939.09
2023-04-14T19:41:51.175Z,35951.03
2023-04-14T19:44:17.772Z,35927.13
2023-04-14T19:46:44.282Z,35939.09
2023-04-14T19:49:11.558Z,35939.09
2023-04-14T19:51:38.252Z,35915.19
2023-04-14T19:54:05.466Z,35951.03
2023-04-14T19:56:32.741Z,35974.97
2023-04-14T19:58:59.460Z,35974.97
2023-04-14T20:01:26.133Z,35980.94
2023-04-14T20:04:05.557Z,35959.00
2023-04-14T20:06:39.228Z,35939.09
2023-04-14T20:09:06.381Z,35927.13
2023-04-14T20:11:33.031Z,35947.06
2023-04-14T20:13:59.470Z,35980.94
2023-04-14T20:16:26.540Z,35937.09
2023-04-14T20:18:53.063Z,35939.09
2023-04-14T20:21:19.472Z,35945.06
2023-04-14T20:23:46.095Z,35965.00
2023-04-14T20:26:13.294Z,35955.03
2023-04-14T20:28:39.784Z,35980.94
2023-04-14T20:31:06.635Z,35959.00
2023-04-14T20:33:33.074Z,35984.91
2023-04-14T20:36:01.539Z,35978.94
2023-04-14T20:38:29.065Z,35970.97
2023-04-14T20:40:55.655Z,35990.91
2023-04-14T20:43:22.182Z,35967.00
2023-04-14T20:45:49.703Z,35959.00
2023-04-14T20:48:16.430Z,35974.97
2023-04-14T20:50:44.303Z,35980.94
2023-04-14T20:53:10.904Z,35967.00
2023-04-14T20:55:37.430Z,35970.97
2023-04-14T20:58:03.967Z,36002.84
2023-04-14T21:00:31.905Z,36002.84
2023-04-14T21:02:59.778Z,35970.97
2023-04-14T21:05:26.695Z,35998.88
2023-04-14T21:07:53.069Z,35986.91
2023-04-14T21:10:19.890Z,36002.84
2023-04-14T21:15:24.833Z,36010.81
2023-04-14T21:15:54.871Z,35986.91
2023-04-14T21:18:19.175Z,36006.84
2023-04-14T21:20:45.657Z,35990.91
2023-04-14T21:23:12.283Z,36002.84
2023-04-14T21:25:38.749Z,36002.84
2023-04-14T21:28:05.429Z,36016.81
2023-04-14T21:30:32.069Z,36026.78
2023-04-14T21:32:59.062Z,36002.84
2023-04-14T21:35:25.816Z,36036.75
2023-04-14T21:37:52.282Z,36026.78
2023-04-14T21:40:19.047Z,36042.72
2023-04-14T21:42:45.744Z,36018.81
2023-04-14T21:45:12.134Z,36032.75
2023-04-14T21:47:38.541Z,36038.72
2023-04-14T21:50:07.171Z,36062.66
2023-04-14T21:52:33.549Z,36038.72
2023-04-14T21:55:00.115Z,36044.72
2023-04-14T21:57:42.855Z,36066.63
2023-04-14T22:00:15.442Z,36034.75
2023-04-14T22:02:42.898Z,36066.63
2023-04-14T22:05:10.685Z,36070.63
2023-04-14T22:07:37.508Z,36058.66
2023-04-14T22:10:04.683Z,36114.47
2023-04-14T22:12:32.392Z,36082.56
2023-04-14T22:15:00.918Z,36070.63
2023-04-14T22:17:27.445Z,36090.53
2023-04-14T22:19:53.832Z,36110.47
2023-04-14T22:22:20.739Z,36118.44
2023-04-14T22:24:47.112Z,36100.50
2023-04-14T22:27:13.491Z,36118.44
2023-04-14T22:29:39.909Z,36122.44
2023-04-14T22:32:07.046Z,36100.50
2023-04-14T22:34:33.450Z,36100.50
2023-04-14T22:37:00.118Z,36158.31
2023-04-14T22:39:26.884Z,36136.38
2023-04-14T22:41:53.266Z,36130.41
2023-04-14T22:44:19.726Z,36146.34
2023-04-14T22:46:46.112Z,36134.38
2023-04-14T22:49:12.731Z,36142.34
2023-04-14T22:51:39.135Z,36162.28
2023-04-14T22:54:06.499Z,36158.31
2023-04-14T22:56:33.270Z,36162.28
2023-04-14T22:58:59.908Z,36160.28
2023-04-14T23:01:27.798Z,36170.25
2023-04-14T23:03:54.637Z,36164.28
2023-04-14T23:06:22.881Z,36180.22
2023-04-14T23:08:50.957Z,36146.34
2023-04-14T23:11:20.777Z,36178.22
2023-04-14T23:13:48.776Z,36170.25
2023-04-14T23:16:19.558Z,36164.28
2023-04-14T23:18:51.835Z,36174.25
2023-04-14T23:21:24.798Z,36182.22
2023-04-14T23:23:51.639Z,36184.22
2023-04-14T23:26:19.464Z,36154.31
2023-04-14T23:28:46.065Z,36194.19
2023-04-14T23:31:12.707Z,36186.19
2023-04-14T23:33:39.126Z,36180.22
2023-04-14T23:36:06.851Z,36178.22
2023-04-14T23:38:33.283Z,36202.16
2023-04-14T23:41:00.256Z,36222.06
2023-04-14T23:43:29.736Z,36220.09
2023-04-14T23:45:56.580Z,36257.94
2023-04-14T23:48:23.029Z,36220.09
2023-04-14T23:51:01.213Z,36246.00
2023-04-14T23:53:36.024Z,36234.03
2023-04-14T23:56:03.880Z,36242.00
2023-04-14T23:58:30.641Z,36249.97
